Airfield :
LOGIN :

Register | Disclaimer

   EN    FR    IT 

 










Legend :    VFR   Marginal VFR   IFR   Intensive IFR   Very Intensive IFR
Visi :
Ceiling :
>= 8 km
>= 3000ft
5 to 8 km
1000 to 3000 ft
1500m to 5 km
500 to 1000 ft
800 to 1500m
200 to 500 ft
< 800m
< 200 ft
Symbols :   Thunderstorms  Fog  Heavy snow  Heavy precipitations  Wind > 20 kt
SIGMETs :     Misc.  Thunderstorms  Icing  Turbulence  Mountain Waves  Volcanic Ashes







- Airport Elevation : 18 ft


LIPC - Cervia AFB Ravenna

CURRENT METAR :
  • 231455Z 33003KT CAVOK 10/08 Q1024 RMK SCT SCT160 VIS MIN 9999 WIND THR11 10004KT WIND THR29 /////KT BLU

EXPIRED METARs :
  • 231355Z 08005KT CAVOK 11/08 Q1024
  • 231255Z 01004KT CAVOK 11/07 Q1023 RMK SKC VIS MIN 9999 WIND THR11 35005KT WIND THR29 /////KT BLU

TAF TAF LIPC
Valid from the 23 at 15:00 until the 24 at 00:00 UTC


231400Z 2315/2324 04005KT CAVOK
BECMG 2322/2324 3000 BR
No reported NOTAMs for that airfield.
1 SIGMET reported for the Milano FIR (LIMM) :
 
Severe turbulence
LIMM SIGMET 5 VALID 231430/231830 LIIP
LIMM MILANO FIR SEV TURB FCST E OF LINE N4653 E01225 - N4326 E01306 ABV FL230 MOV E WKN=



MET'MAP, your aeronautical weather chart ! - Copyright ORBIFLY December 2007 - Disclaimer

ORBIFLY MET'MAP TEAM :

Programming & Development : Alexandra Zaïnal
Concept & Development : Baudouin d'Aumeries
Co-Development & Prog : Marc-Olivier Méhu
Technical & hardware support : Manuel Goepfert

Contact : metmap@orbifly.com




SOURCES & CREDITS :

   NOAA